Main page
METAR-TAF:

METAR-TAF

Airports :

Rome State Airport

Rome, Oregon, United States

latitude: 42-35-26N, longitude: 117-51-52W, elevation: 4048 ft

Current weather observation

The report was made 37 minutes ago, at 03:52 UTC
Wind 25 mph from the West/Southwest with gusts up to 37 mph
Temperature 50°F
Humidity 46%
Pressure 29.76 in. Hg

METAR: KREO 070352Z AUTO 24022G32KT 10/M01 A2976 RMK AO1 PK WND 23032/0352 SLP068 T01001011

Time: 21:29 (04:29 UTC)


TAF: missing

Weather observations and forecasts of more than 4000 airports (METAR and TAF reports).

The available stations are represented by yellow and red dots on the map.

Hover mouse over dot to see the name of the station.

Then click to see weather observations and forecasts.

To change the map : click on the green buttons with a black cross to zoom in, on the green button with a dash to zoom out, or on the green arrows for adjacent maps.


METAR-TAF: